Time;durP1;ratioP1;P1;durP2;ratioP2;P2;SDS_P1;SDS_P2;PMS_P1;PMS_P2;Temp;Humidity;BMP_temperature;BMP_pressure;BME280_temperature;BME280_humidity;BME280_pressure;Samples;Min_cycle;Max_cycle;Signal;HPM_P1;HPM_P2
2022/10/30 00:00:25;;;;;;;4.80;1.90;;;;;;;19.05;54.55;100274.41;5034241;28;19909;-81
2022/10/30 00:02:50;;;;;;;4.22;1.58;;;;;;;19.05;54.68;100277.16;5034189;28;20021;-81
2022/10/30 00:05:18;;;;;;;;;;;;;;;19.00;55.01;100269.28;5034362;28;20018;-82
2022/10/30 00:07:44;;;;;;;3.38;1.30;;;;;;;18.99;54.53;100274.00;5016186;28;19913;-82
2022/10/30 00:10:10;;;;;;;6.07;2.17;;;;;;;18.97;55.15;100275.53;5033850;28;20022;-82
2022/10/30 00:12:35;;;;;;;;;;;;;;;18.96;55.07;100274.75;5033772;28;20191;-81
2022/10/30 00:15:00;;;;;;;4.60;1.53;;;;;;;18.94;55.11;100277.13;5034201;28;19909;-81
2022/10/30 00:17:26;;;;;;;;;;;;;;;18.90;55.29;100274.34;5034486;28;20288;-81
2022/10/30 00:19:51;;;;;;;4.87;1.90;;;;;;;18.88;55.50;100282.22;5033840;28;20011;-82
2022/10/30 00:22:16;;;;;;;;;;;;;;;18.88;55.70;100287.75;5034393;28;20314;-81
2022/10/30 00:24:42;;;;;;;5.63;2.00;;;;;;;18.88;55.45;100279.47;5033683;28;19909;-81
2022/10/30 00:27:07;;;;;;;;;;;;;;;18.85;55.74;100279.44;5016048;28;20059;-82
2022/10/30 00:29:32;;;;;;;5.35;1.70;;;;;;;18.85;55.57;100287.72;5016034;28;19909;-82
2022/10/30 00:31:58;;;;;;;;;;;;;;;18.83;55.59;100276.28;5034384;28;20029;-81
2022/10/30 00:34:23;;;;;;;5.90;2.20;;;;;;;18.87;55.42;100280.63;5033555;28;19912;-81
2022/10/30 00:36:48;;;;;;;;;;;;;;;18.82;55.67;100271.94;5016181;28;20027;-82
2022/10/30 00:39:14;;;;;;;9.07;2.63;;;;;;;18.80;55.92;100275.06;5015702;28;20348;-82
2022/10/30 00:41:40;;;;;;;;;;;;;;;18.78;55.87;100274.66;5016007;28;20281;-82
2022/10/30 00:44:47;;;;;;;9.02;2.00;;;;;;;18.85;55.72;100277.47;5015658;28;20366;-81
2022/10/30 00:47:16;;;;;;;;;;;;;;;18.82;55.67;100280.22;5034019;28;20447;-81
2022/10/30 00:49:52;;;;;;;6.10;2.03;;;;;;;18.78;55.92;100274.66;5033231;28;20379;-81
2022/10/30 00:52:19;;;;;;;7.23;2.53;;;;;;;18.80;55.84;100279.78;5033589;28;20025;-81
2022/10/30 00:54:45;;;;;;;4.30;2.03;;;;;;;18.76;56.08;100282.53;5033662;28;20091;-81
2022/10/30 00:57:10;;;;;;;4.50;1.88;;;;;;;18.71;56.01;100269.13;5033661;28;20482;-81
2022/10/30 00:59:36;;;;;;;;;;;;;;;18.72;56.01;100275.44;5016049;28;20030;-82
2022/10/30 01:02:03;;;;;;;6.65;1.67;;;;;;;18.72;56.29;100273.47;5033559;28;19975;-81
2022/10/30 01:04:31;;;;;;;8.93;1.83;;;;;;;18.71;56.41;100280.16;5033251;28;20048;-82
2022/10/30 01:06:58;;;;;;;4.97;1.88;;;;;;;18.70;56.42;100286.84;5015622;28;20033;-81
2022/10/30 01:09:24;;;;;;;5.78;1.73;;;;;;;18.65;56.62;100273.44;5033005;28;20029;-81
2022/10/30 01:11:49;;;;;;;7.22;2.10;;;;;;;18.58;57.18;100267.84;5032922;28;20037;-82
2022/10/30 01:14:15;;;;;;;;;;;;;;;18.55;57.15;100271.38;5033379;28;20033;-82
2022/10/30 01:17:18;;;;;;;8.85;1.75;;;;;;;18.49;57.41;100273.72;5015087;28;19909;-81
2022/10/30 01:20:18;;;;;;;9.90;2.17;;;;;;;18.43;57.76;100269.72;5033021;28;20032;-80
2022/10/30 01:23:03;;;;;;;5.00;2.33;;;;;;;18.41;57.88;100285.06;5033112;28;20064;-82
2022/10/30 01:25:56;;;;;;;5.38;2.22;;;;;;;18.35;58.05;100281.88;5032685;28;20447;-81
2022/10/30 01:28:34;;;;;;;5.70;2.13;;;;;;;18.31;58.28;100281.06;5014999;28;20116;-82
2022/10/30 01:31:18;;;;;;;7.78;2.25;;;;;;;18.24;58.90;100281.78;5032727;28;20033;-82
2022/10/30 01:34:14;;;;;;;5.50;2.00;;;;;;;18.17;59.13;100287.25;5032777;28;20036;-81
2022/10/30 01:36:56;;;;;;;5.90;2.10;;;;;;;18.14;59.40;100289.97;5033005;28;20025;-81
2022/10/30 01:39:26;;;;;;;5.90;1.90;;;;;;;18.10;59.39;100287.19;5032566;28;20463;-82
2022/10/30 01:41:52;;;;;;;8.73;2.30;;;;;;;18.10;59.36;100280.88;5032165;28;20042;-81
2022/10/30 01:44:21;;;;;;;;;;;;;;;18.04;59.68;100288.72;5033348;28;20041;-82
2022/10/30 01:46:59;;;;;;;5.57;1.70;;;;;;;17.99;59.83;100278.06;5014667;28;19984;-81
2022/10/30 01:49:43;;;;;;;4.63;1.75;;;;;;;17.95;60.25;100278.00;5015030;28;20037;-80
2022/10/30 01:52:16;;;;;;;5.85;2.22;;;;;;;17.92;60.60;100277.97;5032667;28;20018;-81
2022/10/30 01:54:45;;;;;;;4.60;2.00;;;;;;;17.93;60.24;100279.56;5032666;28;20029;-81
2022/10/30 01:57:36;;;;;;;4.07;1.77;;;;;;;17.88;60.56;100277.16;5032508;28;20030;-82
2022/10/30 02:00:14;;;;;;;6.78;2.22;;;;;;;17.85;60.45;100275.97;5015015;28;20029;-82
2022/10/30 02:02:40;;;;;;;5.63;1.88;;;;;;;17.84;60.64;100276.34;5032302;28;20078;-78
2022/10/30 02:05:07;;;;;;;11.90;2.47;;;;;;;17.80;60.94;100270.00;5032088;28;20071;-78
2022/10/30 02:07:35;;;;;;;7.35;1.90;;;;;;;17.80;60.90;100270.00;4997979;28;20506;-78
2022/10/30 02:10:00;;;;;;;6.70;2.30;;;;;;;17.80;60.63;100265.25;5032332;28;20021;-77
2022/10/30 02:12:26;;;;;;;;;;;;;;;17.79;60.84;100273.91;5032544;28;20036;-78
2022/10/30 02:14:56;;;;;;;4.63;1.73;;;;;;;17.71;61.06;100260.09;5014550;28;19920;-78
2022/10/30 02:17:22;;;;;;;9.00;2.25;;;;;;;17.78;61.01;100266.81;5017686;28;20021;-78
2022/10/30 02:19:49;;;;;;;;;;;;;;;17.65;61.41;100258.84;5036139;28;20031;-78
2022/10/30 02:22:16;;;;;;;6.18;1.98;;;;;;;17.67;61.48;100264.75;5036080;28;19921;-77
2022/10/30 02:24:43;;;;;;;6.63;2.35;;;;;;;17.62;61.94;100261.53;5001975;28;20039;-77
2022/10/30 02:27:08;;;;;;;8.00;2.08;;;;;;;17.55;62.11;100258.72;5035900;28;20029;-78
2022/10/30 02:29:33;;;;;;;;;;;;;;;17.61;61.99;100257.19;5036064;28;20515;-78
2022/10/30 02:31:59;;;;;;;4.13;1.90;;;;;;;17.55;62.17;100269.72;5035861;28;20336;-78
2022/10/30 02:34:24;;;;;;;;;;;;;;;17.53;62.38;100274.81;5036291;28;20387;-78
2022/10/30 02:36:49;;;;;;;9.93;2.70;;;;;;;17.49;62.57;100277.53;5035945;28;19916;-78
2022/10/30 02:39:14;;;;;;;;;;;;;;;17.47;62.47;100284.56;5035987;28;20029;-79
2022/10/30 02:41:40;;;;;;;3.63;1.73;;;;;;;17.48;62.40;100273.22;5035354;28;19960;-78
2022/10/30 02:44:05;;;;;;;;;;;;;;;17.57;62.28;100272.88;5018350;28;20029;-77
2022/10/30 02:46:31;;;;;;;5.93;2.28;;;;;;;17.67;61.93;100274.97;5035772;28;19913;-77
2022/10/30 02:48:56;;;;;;;;;;;;;;;17.53;62.14;100292.13;5036037;28;20385;-78
2022/10/30 02:51:21;;;;;;;8.38;2.47;;;;;;;17.44;62.76;100286.91;5035412;28;19916;-78
2022/10/30 02:53:47;;;;;;;;;;;;;;;17.41;62.77;100284.91;5035934;28;20061;-78
2022/10/30 02:56:13;;;;;;;8.33;2.63;;;;;;;17.40;62.72;100275.09;5035380;28;19913;-78
2022/10/30 02:58:39;;;;;;;;;;;;;;;17.38;63.01;100284.88;5035734;28;20275;-78
2022/10/30 03:01:12;;;;;;;8.23;2.70;;;;;;;17.38;62.87;100273.88;5017507;28;19909;-78
2022/10/30 03:03:37;;;;;;;6.30;2.13;;;;;;;17.36;63.02;100287.22;5017462;28;20021;-79
2022/10/30 03:06:04;;;;;;;;;;;;;;;17.39;62.87;100283.72;5035822;28;20540;-78
2022/10/30 03:08:29;;;;;;;6.30;2.75;;;;;;;17.47;62.53;100290.06;5017507;28;19938;-78
2022/10/30 03:10:58;;;;;;;;;;;;;;;17.44;62.67;100281.41;5035846;28;20164;-78
2022/10/30 03:13:23;;;;;;;6.30;2.17;;;;;;;17.39;62.74;100294.72;5035139;28;19908;-77
2022/10/30 03:15:49;;;;;;;;;;;;;;;17.36;63.01;100295.47;5035200;28;20022;-78
2022/10/30 03:18:14;;;;;;;6.37;2.23;;;;;;;17.32;63.30;100294.66;5035348;28;20004;-78
2022/10/30 03:20:39;;;;;;;;;;;;;;;17.32;63.37;100283.66;5035354;28;20033;-78
2022/10/30 03:23:04;;;;;;;9.37;2.03;;;;;;;17.30;63.44;100285.97;5016918;28;19912;-78
2022/10/30 03:25:31;;;;;;;;;;;;;;;17.26;63.56;100294.19;5035620;28;20032;-78
2022/10/30 03:27:56;;;;;;;6.50;2.05;;;;;;;17.24;63.68;100288.25;5033598;28;20019;-78
2022/10/30 03:30:21;;;;;;;;;;;;;;;17.25;63.67;100284.34;5035097;28;20514;-78
2022/10/30 03:32:47;;;;;;;6.40;2.43;;;;;;;17.29;63.49;100287.13;5016984;28;20374;-78
2022/10/30 03:35:12;;;;;;;;;;;;;;;17.26;63.75;100290.63;5035085;28;20037;-78
2022/10/30 03:37:37;;;;;;;4.30;1.93;;;;;;;17.23;63.84;100297.69;5034548;28;19990;-78
2022/10/30 03:40:02;;;;;;;;;;;;;;;17.25;63.84;100289.84;5034909;28;20083;-78
2022/10/30 03:42:28;;;;;;;5.32;2.33;;;;;;;17.20;64.10;100311.41;5034375;28;19917;-78
2022/10/30 03:44:53;;;;;;;;;;;;;;;17.17;64.10;100309.41;5034703;28;20453;-78
2022/10/30 03:47:18;;;;;;;6.87;1.90;;;;;;;17.12;64.58;100303.03;5034329;28;19975;-78
2022/10/30 03:49:43;;;;;;;;;;;;;;;17.06;64.80;100296.31;5034673;28;20022;-78
2022/10/30 03:52:09;;;;;;;6.93;2.17;;;;;;;17.05;64.81;100300.22;5034742;28;20370;-78
2022/10/30 03:54:34;;;;;;;;;;;;;;;17.04;64.83;100304.13;5034385;28;20636;-78
2022/10/30 03:56:59;;;;;;;8.70;2.23;;;;;;;17.01;64.88;100307.66;5034455;28;19909;-79
2022/10/30 03:59:25;;;;;;;5.07;2.20;;;;;;;16.97;65.24;100301.31;5034366;28;20280;-77
2022/10/30 04:01:50;;;;;;;;;;;;;;;16.95;65.09;100302.81;5034409;28;20479;-78
2022/10/30 04:04:15;;;;;;;5.70;2.07;;;;;;;16.94;65.33;100295.75;5016383;28;19913;-78
2022/10/30 04:06:40;;;;;;;;;;;;;;;16.94;65.34;100307.53;5034491;28;20332;-78
2022/10/30 04:09:05;;;;;;;6.57;2.20;;;;;;;16.87;65.52;100296.44;5033812;28;19954;-79
2022/10/30 04:11:31;;;;;;;;;;;;;;;16.82;65.92;100300.31;5016518;28;20029;-80
2022/10/30 04:13:56;;;;;;;8.33;2.33;;;;;;;16.79;65.80;100311.25;5034265;28;19909;-79
2022/10/30 04:16:21;;;;;;;;;;;;;;;16.71;66.45;100304.06;5034319;28;20026;-79
2022/10/30 04:18:47;;;;;;;5.63;1.80;;;;;;;16.69;66.35;100309.16;5033923;28;19916;-78
2022/10/30 04:21:12;;;;;;;6.28;2.00;;;;;;;16.66;66.58;100307.13;5033293;28;20288;-78
2022/10/30 04:23:37;;;;;;;7.27;2.60;;;;;;;16.64;66.98;100309.47;5033469;28;20029;-78
2022/10/30 04:26:02;;;;;;;;;;;;;;;16.60;66.80;100308.59;5033740;28;20279;-78
2022/10/30 04:28:28;;;;;;;5.70;2.30;;;;;;;16.54;67.32;100303.41;5033265;28;19909;-78
2022/10/30 04:30:53;;;;;;;5.35;2.10;;;;;;;16.51;67.56;100304.16;5033283;28;20278;-77
2022/10/30 04:33:20;;;;;;;;;;;;;;;16.48;67.53;100302.16;5016052;28;20034;-78
2022/10/30 04:35:45;;;;;;;4.35;2.00;;;;;;;16.43;67.50;100305.19;5033738;28;19924;-78
2022/10/30 04:38:13;;;;;;;8.27;1.92;;;;;;;16.43;67.83;100310.69;5033254;28;20022;-77
2022/10/30 04:40:41;;;;;;;5.13;1.85;;;;;;;16.41;67.87;100321.28;5033024;28;20544;-78
2022/10/30 04:43:08;;;;;;;10.82;2.22;;;;;;;16.37;68.04;100320.44;5033403;28;20025;-78
2022/10/30 04:45:35;;;;;;;5.35;2.47;;;;;;;16.33;68.15;100314.09;5033689;28;20026;-79
2022/10/30 04:48:07;;;;;;;3.97;1.80;;;;;;;16.33;68.39;100316.03;5033285;28;20033;-79
2022/10/30 04:50:34;;;;;;;4.97;1.85;;;;;;;16.29;68.64;100318.72;5015445;28;20478;-77
2022/10/30 04:53:01;;;;;;;6.47;2.55;;;;;;;16.24;68.67;100310.78;5033326;28;20025;-78
2022/10/30 04:55:27;;;;;;;6.13;2.10;;;;;;;16.22;68.73;100307.63;5015654;28;20544;-78
2022/10/30 04:57:57;;;;;;;14.68;3.45;;;;;;;16.17;68.82;100302.44;5032973;28;20086;-78
2022/10/30 05:00:24;;;;;;;7.93;2.67;;;;;;;16.18;69.05;100301.28;5033145;28;20116;-77
2022/10/30 05:02:49;;;;;;;5.97;2.22;;;;;;;16.16;69.21;100303.63;5033394;28;20025;-78
2022/10/30 05:05:15;;;;;;;6.20;2.17;;;;;;;16.11;69.27;100296.44;5033026;28;20029;-78
2022/10/30 05:07:40;;;;;;;;;;;;;;;16.11;69.54;100296.44;5032986;28;20275;-78
2022/10/30 05:10:06;;;;;;;4.50;1.77;;;;;;;16.07;69.51;100286.56;5015247;28;19909;-77
2022/10/30 05:12:31;;;;;;;;;;;;;;;16.09;69.79;100290.53;5033125;28;20033;-78
2022/10/30 05:14:56;;;;;;;6.17;2.57;;;;;;;16.02;70.04;100284.16;5032717;28;20289;-78
2022/10/30 05:17:21;;;;;;;;;;;;;;;15.98;70.11;100291.53;5033314;28;20501;-78
2022/10/30 05:19:47;;;;;;;5.53;2.43;;;;;;;15.97;70.25;100292.69;5032443;28;20009;-78
2022/10/30 05:22:12;;;;;;;6.85;2.38;;;;;;;15.91;70.39;100289.44;5032606;28;20298;-78
2022/10/30 05:24:37;;;;;;;8.73;2.47;;;;;;;15.89;70.77;100289.81;5032380;28;20112;-78
2022/10/30 05:27:03;;;;;;;;;;;;;;;15.85;70.85;100291.72;5032949;28;20048;-77
2022/10/30 05:29:31;;;;;;;5.43;2.13;;;;;;;15.89;70.91;100289.03;5032970;28;20328;-78
2022/10/30 05:31:56;;;;;;;7.18;2.50;;;;;;;15.92;70.68;100283.59;5014837;28;20053;-77
2022/10/30 05:34:21;;;;;;;5.57;2.03;;;;;;;15.99;70.23;100280.19;5015103;28;20117;-77
2022/10/30 05:36:48;;;;;;;9.48;2.55;;;;;;;15.93;70.65;100279.69;5032845;28;20292;-78
2022/10/30 05:39:14;;;;;;;6.35;1.98;;;;;;;15.81;71.07;100279.88;4998691;28;20469;-78
2022/10/30 05:41:39;;;;;;;10.10;2.60;;;;;;;15.74;71.84;100279.75;5032512;28;20080;-77
2022/10/30 05:44:04;;;;;;;7.97;2.53;;;;;;;15.78;71.45;100280.59;5014886;28;20366;-77
2022/10/30 05:46:29;;;;;;;6.15;2.25;;;;;;;15.72;71.83;100275.78;5032293;28;20294;-77
2022/10/30 05:48:55;;;;;;;;;;;;;;;15.67;72.08;100273.34;5032853;28;20049;-78
2022/10/30 05:51:20;;;;;;;7.40;2.73;;;;;;;15.59;72.51;100270.44;5015998;28;19967;-78
2022/10/30 05:53:48;;;;;;;7.07;2.93;;;;;;;15.56;72.63;100267.63;5036450;28;20637;-78
2022/10/30 05:56:14;;;;;;;7.55;2.63;;;;;;;15.58;72.64;100260.59;5036312;28;20272;-77
2022/10/30 05:58:39;;;;;;;5.80;2.50;;;;;;;15.61;72.91;100270.09;5036341;28;20466;-77
2022/10/30 06:01:07;;;;;;;;;;;;;;;15.68;72.18;100274.94;5036878;28;20037;-78
2022/10/30 06:03:33;;;;;;;4.80;2.03;;;;;;;15.53;72.98;100277.38;5036378;28;19959;-78
2022/10/30 06:05:58;;;;;;;8.27;3.13;;;;;;;15.42;73.44;100270.09;5036235;28;20033;-78
2022/10/30 06:08:23;;;;;;;;;;;;;;;15.34;74.05;100272.72;5036906;28;20056;-78
2022/10/30 06:10:48;;;;;;;4.80;1.90;;;;;;;15.30;74.09;100282.84;5035967;28;19909;-78
2022/10/30 06:13:14;;;;;;;6.90;3.27;;;;;;;15.31;74.09;100283.63;5018556;28;20315;-77
2022/10/30 06:15:39;;;;;;;8.00;2.47;;;;;;;15.32;74.08;100286.00;5036210;28;20733;-77
2022/10/30 06:18:06;;;;;;;8.73;2.63;;;;;;;15.33;74.50;100287.59;5036090;28;20034;-77
2022/10/30 06:20:31;;;;;;;6.20;2.78;;;;;;;15.38;74.43;100288.44;5018471;28;20025;-78
2022/10/30 06:23:00;;;;;;;7.13;2.37;;;;;;;15.34;74.33;100291.91;5036323;28;20065;-77
2022/10/30 06:25:29;;;;;;;5.90;2.45;;;;;;;15.33;74.39;100290.34;5018076;28;20371;-77
2022/10/30 06:27:54;;;;;;;6.05;2.00;;;;;;;15.23;74.51;100293.66;5035771;28;20033;-77
2022/10/30 06:30:20;;;;;;;7.70;2.88;;;;;;;15.20;74.93;100296.31;5035554;28;20496;-77
2022/10/30 06:32:46;;;;;;;;;;;;;;;15.16;74.90;100289.97;5036208;28;20041;-78
2022/10/30 06:35:15;;;;;;;8.10;2.35;;;;;;;15.24;75.08;100292.50;5035657;28;19909;-78
2022/10/30 06:37:46;;;;;;;7.72;2.22;;;;;;;15.28;75.92;100301.59;5017978;28;20382;-78
2022/10/30 06:40:11;;;;;;;7.72;2.88;;;;;;;15.33;76.26;100303.25;5017718;28;20101;-78
2022/10/30 06:42:43;;;;;;;8.65;2.60;;;;;;;15.27;75.16;100293.72;5035481;28;20137;-78
2022/10/30 06:45:09;;;;;;;5.88;2.53;;;;;;;15.32;75.75;100299.72;5035585;28;20391;-78
2022/10/30 06:47:35;;;;;;;8.48;2.65;;;;;;;15.32;74.36;100296.97;5035507;28;20484;-78
2022/10/30 06:50:01;;;;;;;9.68;2.78;;;;;;;15.32;75.58;100294.22;5017631;28;20057;-78
2022/10/30 06:52:26;;;;;;;7.65;2.42;;;;;;;15.26;74.89;100301.16;5035486;28;20025;-78
2022/10/30 06:54:52;;;;;;;9.80;2.87;;;;;;;15.27;74.76;100301.94;5035285;28;20091;-78
2022/10/30 06:57:17;;;;;;;;;;;;;;;15.34;74.49;100294.66;5035658;28;20113;-77
2022/10/30 06:59:42;;;;;;;6.93;2.93;;;;;;;15.35;73.87;100301.75;5035162;28;19915;-78
2022/10/30 07:02:09;;;;;;;;;;;;;;;15.40;73.94;100300.63;5035613;28;20033;-78
2022/10/30 07:04:34;;;;;;;13.30;2.38;;;;;;;15.45;73.80;100307.78;5035216;28;19909;-78
2022/10/30 07:07:00;;;;;;;7.93;2.07;;;;;;;15.51;73.44;100304.41;5034932;28;20037;-78
2022/10/30 07:09:25;;;;;;;;;;;;;;;15.54;73.34;100302.88;5035663;28;20029;-78
2022/10/30 07:11:50;;;;;;;6.43;2.10;;;;;;;15.63;74.39;100296.03;5017641;28;19913;-78
2022/10/30 07:14:15;;;;;;;;;;;;;;;15.63;73.13;100295.25;5035602;28;20052;-78
2022/10/30 07:16:52;;;;;;;10.30;2.30;;;;;;;15.65;73.50;100301.16;5035268;28;19909;-78
2022/10/30 07:19:18;;;;;;;13.43;2.78;;;;;;;15.69;73.64;100304.75;5035078;28;20030;-79
2022/10/30 07:21:43;;;;;;;11.93;2.93;;;;;;;15.74;72.77;100300.91;5035040;28;20421;-78
2022/10/30 07:24:08;;;;;;;;;;;;;;;15.79;72.83;100304.16;5035391;28;20112;-78
2022/10/30 07:26:36;;;;;;;5.47;2.43;;;;;;;15.73;73.61;100299.31;5016865;28;19913;-78
2022/10/30 07:29:03;;;;;;;9.90;2.60;;;;;;;15.71;72.99;100304.38;5017135;28;20029;-78
2022/10/30 07:31:28;;;;;;;;;;;;;;;15.79;73.78;100301.41;5035172;28;20029;-78
2022/10/30 07:33:53;;;;;;;4.63;2.38;;;;;;;15.95;72.91;100306.78;5017016;28;20377;-77
2022/10/30 07:36:19;;;;;;;7.27;2.40;;;;;;;15.99;73.20;100313.13;5034598;28;20462;-78
2022/10/30 07:38:44;;;;;;;;;;;;;;;15.91;73.29;100308.66;5017216;28;20079;-78
2022/10/30 07:41:09;;;;;;;8.53;3.03;;;;;;;15.82;73.55;100308.13;5034653;28;19921;-78
2022/10/30 07:43:35;;;;;;;;;;;;;;;15.82;72.90;100306.19;5034906;28;20038;-78
2022/10/30 07:46:00;;;;;;;8.43;2.33;;;;;;;15.85;72.94;100308.19;5034419;28;19939;-78
2022/10/30 07:48:25;;;;;;;7.23;1.97;;;;;;;15.95;72.53;100304.81;5034279;28;20034;-78
2022/10/30 07:50:50;;;;;;;8.03;2.10;;;;;;;15.99;72.40;100306.84;5034200;28;20267;-77
2022/10/30 07:53:16;;;;;;;5.63;2.30;;;;;;;16.04;73.03;100314.78;5016544;28;20359;-78
2022/10/30 07:55:42;;;;;;;6.28;2.60;;;;;;;16.05;72.78;100316.38;5016271;28;20362;-78
2022/10/30 07:58:08;;;;;;;;;;;;;;;16.31;71.77;100302.69;5016957;28;20083;-78
2022/10/30 08:00:34;;;;;;;4.97;2.40;;;;;;;16.62;70.64;100301.56;5034415;28;19909;-78
2022/10/30 08:02:59;;;;;;;7.10;2.40;;;;;;;16.66;70.19;100307.13;5016544;28;20063;-78
2022/10/30 08:05:24;;;;;;;;;;;;;;;16.54;70.75;100303.41;5016788;28;20375;-78
2022/10/30 08:07:49;;;;;;;6.13;2.25;;;;;;;16.53;70.67;100298.28;5034058;28;19917;-78
2022/10/30 08:10:15;;;;;;;;;;;;;;;16.54;70.89;100299.88;5016339;28;20490;-78
2022/10/30 08:12:42;;;;;;;5.72;2.60;;;;;;;16.64;70.98;100301.22;5015952;28;19947;-78
2022/10/30 08:15:10;;;;;;;6.25;2.38;;;;;;;16.61;70.99;100299.97;5033377;28;20032;-78
2022/10/30 08:17:46;;;;;;;6.18;2.10;;;;;;;16.59;71.45;100307.00;5033926;28;20021;-78
2022/10/30 08:20:12;;;;;;;6.93;2.30;;;;;;;16.64;71.25;100306.72;5034181;28;20018;-77
2022/10/30 08:22:47;;;;;;;6.40;2.40;;;;;;;16.72;70.49;100305.66;5034119;28;20112;-78
2022/10/30 08:25:14;;;;;;;7.97;2.58;;;;;;;16.71;71.06;100304.06;5034098;28;20363;-78
2022/10/30 08:27:58;;;;;;;6.40;2.80;;;;;;;16.90;70.75;100305.91;5033720;28;20029;-78
2022/10/30 08:30:27;;;;;;;6.32;2.40;;;;;;;16.93;70.59;100289.44;5033582;28;20021;-79
2022/10/30 08:32:56;;;;;;;6.50;2.08;;;;;;;17.17;69.16;100295.66;5033704;28;20087;-78
2022/10/30 08:35:22;;;;;;;8.70;3.05;;;;;;;17.10;69.22;100293.59;5033411;28;20040;-78
2022/10/30 08:37:47;;;;;;;5.78;1.92;;;;;;;16.99;70.13;100293.47;5033767;28;20026;-78
2022/10/30 08:40:12;;;;;;;;;;;;;;;17.44;68.40;100289.66;5034060;28;20395;-78
2022/10/30 08:42:37;;;;;;;5.22;2.00;;;;;;;17.57;67.73;100284.69;5033163;28;20401;-78
2022/10/30 08:45:03;;;;;;;;;;;;;;;17.48;68.15;100281.47;5033894;28;20120;-78
2022/10/30 08:47:28;;;;;;;10.48;3.20;;;;;;;17.33;68.67;100288.78;5015518;28;19962;-78
2022/10/30 08:49:54;;;;;;;;;;;;;;;17.49;67.76;100280.31;5033661;28;20048;-79
2022/10/30 08:52:20;;;;;;;6.43;2.47;;;;;;;17.60;67.64;100280.38;5033007;28;19916;-79
2022/10/30 08:54:45;;;;;;;4.95;2.00;;;;;;;17.69;66.84;100273.44;5033301;28;20041;-79
2022/10/30 08:57:11;;;;;;;;;;;;;;;17.51;67.81;100280.72;5033777;28;20075;-78
2022/10/30 08:59:36;;;;;;;7.17;1.93;;;;;;;17.63;67.77;100282.38;5033075;28;20297;-79
2022/10/30 09:02:01;;;;;;;;;;;;;;;17.57;68.35;100284.69;5033710;28;20264;-78
2022/10/30 09:04:26;;;;;;;7.13;2.13;;;;;;;17.66;68.05;100276.16;5033032;28;20362;-78
2022/10/30 09:06:52;;;;;;;;;;;;;;;18.10;66.49;100284.44;5015619;28;20026;-78
2022/10/30 09:09:18;;;;;;;4.77;1.83;;;;;;;18.08;66.41;100281.25;5033199;28;19967;-79
2022/10/30 09:11:43;;;;;;;6.65;2.05;;;;;;;18.29;65.74;100280.63;5015178;28;20029;-79
2022/10/30 09:14:09;;;;;;;;;;;;;;;18.38;65.52;100278.34;5033022;28;20029;-80
2022/10/30 09:16:34;;;;;;;6.40;1.70;;;;;;;18.29;66.22;100280.63;5033159;28;19913;-78
2022/10/30 09:18:59;;;;;;;;;;;;;;;18.30;65.46;100269.22;5032971;28;20275;-78
2022/10/30 09:21:24;;;;;;;9.33;2.23;;;;;;;18.28;65.84;100274.31;5032911;28;20003;-78
2022/10/30 09:23:51;;;;;;;;;;;;;;;18.26;65.76;100271.16;5032958;28;20035;-79
2022/10/30 09:26:16;;;;;;;6.03;1.70;;;;;;;18.62;64.50;100271.41;5031537;28;19920;-77
2022/10/30 09:28:41;;;;;;;;;;;;;;;18.85;63.79;100273.94;5032834;28;20017;-79
2022/10/30 09:31:07;;;;;;;5.97;2.47;;;;;;;18.81;63.47;100268.41;5014855;28;19909;-78
2022/10/30 09:33:32;;;;;;;;;;;;;;;18.99;63.37;100262.97;5033338;28;20333;-78
2022/10/30 09:35:57;;;;;;;7.80;2.27;;;;;;;19.01;63.83;100254.28;5032417;28;20290;-77
2022/10/30 09:38:24;;;;;;;5.38;2.03;;;;;;;19.17;62.84;100263.03;5032329;28;20394;-78
2022/10/30 09:41:14;;;;;;;5.18;2.08;;;;;;;19.27;62.26;100253.97;5032560;28;20095;-78
2022/10/30 09:44:24;;;;;;;5.25;2.10;;;;;;;19.46;61.69;100242.59;5014945;28;20406;-78
2022/10/30 09:47:08;;;;;;;6.97;1.92;;;;;;;19.33;62.02;100244.16;4992186;28;20033;-78
2022/10/30 09:50:11;;;;;;;6.13;2.58;;;;;;;19.26;62.79;100243.31;5032953;28;20068;-79
2022/10/30 09:53:10;;;;;;;6.53;2.47;;;;;;;19.55;61.73;100245.00;5032693;28;20359;-79
2022/10/30 09:55:46;;;;;;;6.40;2.75;;;;;;;19.50;61.37;100243.41;5014769;28;20028;-78
2022/10/30 09:58:23;;;;;;;8.45;2.63;;;;;;;19.54;61.14;100248.97;5032601;28;20475;-78
2022/10/30 10:01:07;;;;;;;6.30;2.20;;;;;;;19.73;61.65;100251.34;5032675;28;20029;-79
2022/10/30 10:03:48;;;;;;;5.47;1.95;;;;;;;19.54;61.75;100254.47;5032500;28;20025;-79
2022/10/30 10:06:17;;;;;;;6.35;2.28;;;;;;;19.53;61.34;100258.41;5032459;28;20025;-78
2022/10/30 10:08:58;;;;;;;6.75;1.90;;;;;;;19.49;62.13;100252.09;5014635;28;20434;-79
2022/10/30 10:11:30;;;;;;;6.10;2.25;;;;;;;19.58;62.30;100255.25;5028872;28;20033;-79
2022/10/30 10:14:07;;;;;;;6.43;2.20;;;;;;;20.05;59.98;100256.88;5014617;28;20039;-79
2022/10/30 10:16:37;;;;;;;7.47;1.90;;;;;;;20.15;59.49;100258.03;5014530;28;20037;-78
2022/10/30 10:19:17;;;;;;;6.13;2.10;;;;;;;20.22;59.66;100254.50;5014511;28;20075;-77
2022/10/30 10:21:47;;;;;;;8.05;2.42;;;;;;;20.23;59.95;100253.31;5032767;28;20080;-78
2022/10/30 10:24:18;;;;;;;5.57;2.10;;;;;;;20.31;59.68;100247.38;5032618;28;20068;-78
2022/10/30 10:26:49;;;;;;;9.02;2.22;;;;;;;20.21;59.85;100263.97;5014451;28;20117;-79
2022/10/30 10:29:24;;;;;;;5.53;1.77;;;;;;;20.37;60.22;100247.78;5014524;28;20546;-79
2022/10/30 10:32:08;;;;;;;8.32;2.20;;;;;;;20.57;59.70;100246.19;5032154;28;20026;-79
2022/10/30 10:35:02;;;;;;;6.22;2.13;;;;;;;20.52;58.71;100232.75;5032335;28;20021;-78
2022/10/30 10:37:49;;;;;;;9.90;2.20;;;;;;;20.73;57.26;100237.44;5022500;28;20033;-79
2022/10/30 10:40:21;;;;;;;5.47;1.80;;;;;;;20.68;58.05;100243.38;5035737;28;20036;-81
2022/10/30 10:43:10;;;;;;;7.15;2.10;;;;;;;20.84;57.71;100234.63;5035661;28;20049;-78
2022/10/30 10:45:50;;;;;;;6.97;2.17;;;;;;;21.13;56.68;100233.28;5035684;28;20596;-79
2022/10/30 10:48:30;;;;;;;6.43;2.22;;;;;;;21.28;57.07;100236.81;5035474;28;20040;-79
2022/10/30 10:51:05;;;;;;;4.35;1.73;;;;;;;21.18;56.65;100227.34;5035633;28;20029;-78
2022/10/30 10:54:04;;;;;;;6.88;2.10;;;;;;;21.36;55.38;100232.81;5017609;28;20083;-78
2022/10/30 10:56:37;;;;;;;5.20;1.65;;;;;;;21.41;55.51;100231.59;5035270;28;20052;-78
2022/10/30 10:59:07;;;;;;;6.68;2.38;;;;;;;21.20;55.67;100224.19;5035500;28;20079;-77
2022/10/30 11:01:39;;;;;;;6.30;2.00;;;;;;;21.37;54.18;100233.63;5035635;28;20037;-78
2022/10/30 11:04:16;;;;;;;11.80;2.22;;;;;;;21.37;54.87;100228.06;5035301;28;20083;-78
2022/10/30 11:06:48;;;;;;;4.75;2.03;;;;;;;21.11;55.68;100221.06;5017382;28;20021;-79
2022/10/30 11:09:18;;;;;;;6.38;1.70;;;;;;;21.38;53.08;100219.34;5035365;28;20075;-79
2022/10/30 11:11:44;;;;;;;5.20;1.83;;;;;;;21.32;53.87;100227.28;5035293;28;20533;-78
2022/10/30 11:14:16;;;;;;;13.98;1.90;;;;;;;21.40;52.71;100216.97;5035079;28;20029;-80
2022/10/30 11:16:58;;;;;;;5.00;1.83;;;;;;;21.47;52.83;100225.22;5035449;28;20025;-78
2022/10/30 11:19:24;;;;;;;6.30;2.33;;;;;;;21.48;52.75;100217.69;5016339;28;20041;-78
2022/10/30 11:21:52;;;;;;;5.75;2.33;;;;;;;21.47;51.96;100205.81;5017226;28;20025;-79
2022/10/30 11:24:32;;;;;;;6.35;2.58;;;;;;;21.24;52.53;100213.88;5035374;28;20025;-78
2022/10/30 11:27:18;;;;;;;4.88;1.92;;;;;;;21.61;52.08;100207.72;5034975;28;20036;-78
2022/10/30 11:29:53;;;;;;;3.20;1.50;;;;;;;21.47;52.24;100210.56;5035098;28;20036;-79
2022/10/30 11:32:21;;;;;;;6.45;2.25;;;;;;;21.68;52.30;100215.19;5016832;28;20108;-78
2022/10/30 11:35:18;;;;;;;6.82;2.35;;;;;;;21.80;52.52;100217.47;5034645;28;20497;-78
2022/10/30 11:37:45;;;;;;;5.50;2.07;;;;;;;21.41;52.89;100207.47;5034959;28;20032;-79
2022/10/30 11:40:10;;;;;;;7.03;1.95;;;;;;;21.67;52.45;100208.88;5035012;28;20272;-79
2022/10/30 11:42:50;;;;;;;6.03;2.03;;;;;;;21.49;52.61;100208.19;5016757;28;20593;-78
2022/10/30 11:45:29;;;;;;;7.50;2.33;;;;;;;21.48;53.28;100210.16;5034552;28;20272;-79
2022/10/30 11:47:57;;;;;;;9.75;1.70;;;;;;;21.64;52.07;100198.59;5034279;28;20100;-78
2022/10/30 11:50:25;;;;;;;5.78;1.35;;;;;;;21.73;52.87;100201.69;5015836;28;20026;-80